createdAt,value
2018-03-20T00:00:23.928Z,101191.05
2018-03-20T00:02:57.001Z,101189.91
2018-03-20T00:05:27.978Z,101189.55
2018-03-20T00:07:59.154Z,101199.95
2018-03-20T00:13:09.636Z,101197.33
2018-03-20T00:15:42.122Z,101182.48
2018-03-20T00:18:13.287Z,101189.16
2018-03-20T00:20:44.417Z,101183.16
2018-03-20T00:23:15.510Z,101184.70
2018-03-20T00:25:47.098Z,101184.25
2018-03-20T00:28:17.988Z,101179.25
2018-03-20T00:30:49.716Z,101180.47
2018-03-20T00:33:21.705Z,101190.81
2018-03-20T00:35:52.923Z,101198.23
2018-03-20T00:38:24.125Z,101180.78
2018-03-20T00:40:55.296Z,101191.97
2018-03-20T00:43:26.379Z,101196.28
2018-03-20T00:45:58.439Z,101189.62
2018-03-20T00:48:29.592Z,101201.41
2018-03-20T00:51:00.778Z,101195.38
2018-03-20T00:53:32.693Z,101202.18
2018-03-20T00:56:03.970Z,101204.22
2018-03-20T00:58:35.536Z,101204.77
2018-03-20T01:01:22.500Z,101202.06
2018-03-20T01:03:54.146Z,101212.17
2018-03-20T01:06:25.793Z,101210.67
2018-03-20T01:08:57.155Z,101211.41
2018-03-20T01:11:28.279Z,101213.58
2018-03-20T01:13:59.560Z,101217.81
2018-03-20T01:16:34.231Z,101221.88
2018-03-20T01:19:06.121Z,101225.24
2018-03-20T01:21:37.659Z,101224.17
2018-03-20T01:24:09.532Z,101221.95
2018-03-20T01:26:41.173Z,101224.13
2018-03-20T01:29:12.431Z,101218.50
2018-03-20T01:31:44.507Z,101226.31
2018-03-20T01:34:19.742Z,101223.43
2018-03-20T01:36:51.340Z,101220.39
2018-03-20T01:39:22.929Z,101211.88
2018-03-20T01:41:54.757Z,101213.72
2018-03-20T01:44:26.410Z,101214.57
2018-03-20T01:46:59.085Z,101191.14
2018-03-20T01:49:31.158Z,101207.28
2018-03-20T01:52:02.678Z,101208.53
2018-03-20T01:54:34.820Z,101211.67
2018-03-20T01:57:06.286Z,101218.66
2018-03-20T01:59:40.960Z,101214.77
2018-03-20T02:02:13.085Z,101213.78
2018-03-20T02:04:44.448Z,101213.63
2018-03-20T02:07:16.169Z,101213.86
2018-03-20T02:09:47.979Z,101206.64
2018-03-20T02:12:19.585Z,101208.52
2018-03-20T02:14:51.631Z,101199.13
2018-03-20T02:17:23.648Z,101197.17
2018-03-20T02:19:55.230Z,101191.55
2018-03-20T02:22:26.403Z,101195.83
2018-03-20T02:24:57.642Z,101189.77
2018-03-20T02:27:29.232Z,101195.17
2018-03-20T02:30:00.438Z,101189.92
2018-03-20T02:32:34.573Z,101191.94
2018-03-20T02:35:06.476Z,101200.58
2018-03-20T02:37:37.886Z,101196.25
2018-03-20T02:40:10.668Z,101198.88
2018-03-20T02:42:41.831Z,101195.98
2018-03-20T02:45:15.656Z,101202.78
2018-03-20T02:47:47.556Z,101201.73
2018-03-20T02:50:20.233Z,101199.99
2018-03-20T02:52:52.955Z,101207.34
2018-03-20T02:55:24.245Z,101209.61
2018-03-20T02:57:55.408Z,101197.75
2018-03-20T03:00:27.434Z,101192.58
2018-03-20T03:02:59.850Z,101186.36
2018-03-20T03:05:31.164Z,101177.87
2018-03-20T03:08:03.017Z,101148.72
2018-03-20T03:10:38.395Z,101169.37
2018-03-20T03:13:19.093Z,101168.25
2018-03-20T03:15:50.540Z,101180.95
2018-03-20T03:18:21.734Z,101179.36
2018-03-20T03:20:52.586Z,101191.27
2018-03-20T03:23:24.647Z,101185.07
2018-03-20T03:25:56.178Z,101188.89
2018-03-20T03:28:27.657Z,101183.88
2018-03-20T03:30:59.366Z,101176.76
2018-03-20T03:33:30.771Z,101180.98
2018-03-20T03:36:01.677Z,101184.09
2018-03-20T03:38:33.124Z,101182.43
2018-03-20T03:41:10.527Z,101189.03
2018-03-20T03:43:43.132Z,101185.00
2018-03-20T03:46:15.076Z,101193.09
2018-03-20T03:48:45.731Z,101199.22
2018-03-20T03:51:16.709Z,101199.97
2018-03-20T03:53:47.857Z,101182.52
2018-03-20T03:56:19.241Z,101189.77
2018-03-20T03:58:50.421Z,101189.56
2018-03-20T04:01:22.169Z,101191.60
2018-03-20T04:03:53.283Z,101195.35
2018-03-20T04:06:23.956Z,101190.23
2018-03-20T04:08:56.093Z,101195.41
2018-03-20T04:11:28.238Z,101194.23
2018-03-20T04:13:59.058Z,101192.89
2018-03-20T04:16:30.727Z,101186.33
2018-03-20T04:19:02.418Z,101190.59
2018-03-20T04:21:34.062Z,101193.70
2018-03-20T04:24:05.212Z,101183.31
2018-03-20T04:26:37.218Z,101180.24
2018-03-20T04:29:08.099Z,101170.62
2018-03-20T04:31:41.160Z,101166.39
2018-03-20T04:34:14.553Z,101165.50
2018-03-20T04:36:45.463Z,101173.00
2018-03-20T04:39:16.297Z,101170.28
2018-03-20T04:41:47.470Z,101179.94
2018-03-20T04:44:19.390Z,101175.98
2018-03-20T04:46:50.287Z,101169.94
2018-03-20T04:49:26.069Z,101164.41
2018-03-20T04:51:56.926Z,101163.98
2018-03-20T04:54:30.550Z,101170.78
2018-03-20T04:57:04.969Z,101179.48
2018-03-20T04:59:37.841Z,101169.23
2018-03-20T05:02:09.162Z,101168.89
2018-03-20T05:04:39.975Z,101185.06
2018-03-20T05:07:10.602Z,101186.86
2018-03-20T05:09:42.080Z,101185.77
2018-03-20T05:12:13.257Z,101177.61
2018-03-20T05:14:44.536Z,101183.69
2018-03-20T05:17:17.520Z,101183.17
2018-03-20T05:19:48.804Z,101183.27
2018-03-20T05:22:20.099Z,101181.18
2018-03-20T05:24:51.329Z,101183.09
2018-03-20T05:27:22.662Z,101192.15
2018-03-20T05:33:04.374Z,101190.59
2018-03-20T05:35:35.798Z,101201.33
2018-03-20T05:38:07.276Z,101201.68
2018-03-20T05:40:40.197Z,101196.80
2018-03-20T05:43:11.620Z,101194.35
2018-03-20T05:45:45.238Z,101191.00
2018-03-20T05:48:17.191Z,101197.13
2018-03-20T05:50:48.607Z,101203.33
2018-03-20T05:53:21.487Z,101196.52
2018-03-20T05:55:54.960Z,101192.34
2018-03-20T05:58:26.066Z,101194.78
2018-03-20T06:00:58.514Z,101173.07
2018-03-20T06:03:30.039Z,101210.02
2018-03-20T06:06:01.263Z,101209.47
2018-03-20T06:08:32.625Z,101216.20
2018-03-20T06:11:03.859Z,101219.80
2018-03-20T06:13:38.048Z,101208.84
2018-03-20T06:16:10.608Z,101213.92
2018-03-20T06:18:42.433Z,101210.06
2018-03-20T06:21:14.489Z,101210.34
2018-03-20T06:23:46.616Z,101222.71
2018-03-20T06:26:17.827Z,101220.98
2018-03-20T06:28:49.463Z,101236.21
2018-03-20T06:31:22.252Z,101233.95
2018-03-20T06:33:55.702Z,101234.91
2018-03-20T06:36:27.923Z,101250.66
2018-03-20T06:38:59.509Z,101256.68
2018-03-20T06:41:31.703Z,101253.71
2018-03-20T06:44:03.173Z,101248.44
2018-03-20T06:46:35.769Z,101249.02
2018-03-20T06:49:08.168Z,101243.92
2018-03-20T06:51:39.271Z,101251.06
2018-03-20T06:54:12.281Z,101244.80
2018-03-20T06:56:46.176Z,101254.72
2018-03-20T06:59:19.333Z,101263.77
2018-03-20T07:01:51.776Z,101250.81
2018-03-20T07:04:23.595Z,101252.09
2018-03-20T07:06:55.700Z,101254.44
2018-03-20T07:09:28.352Z,101248.80
2018-03-20T07:11:59.858Z,101257.69
2018-03-20T07:14:31.379Z,101257.86
2018-03-20T07:17:03.851Z,101261.64
2018-03-20T07:19:36.905Z,101262.42
2018-03-20T07:22:08.728Z,101254.41
2018-03-20T07:24:47.209Z,101205.85
2018-03-20T07:27:18.772Z,101250.71
2018-03-20T07:29:50.649Z,101250.95
2018-03-20T07:32:23.716Z,101255.89
2018-03-20T07:34:57.125Z,101258.42
2018-03-20T07:37:28.616Z,101266.34
2018-03-20T07:39:59.968Z,101275.45
2018-03-20T07:42:32.202Z,101282.30
2018-03-20T07:45:08.361Z,101278.83
2018-03-20T07:47:42.058Z,101289.80
2018-03-20T07:50:15.316Z,101291.77
2018-03-20T07:52:50.394Z,101302.98
2018-03-20T07:55:21.583Z,101309.89
2018-03-20T07:57:53.516Z,101311.62
2018-03-20T08:00:29.273Z,101315.87
2018-03-20T08:03:01.228Z,101309.67
2018-03-20T08:05:32.417Z,101312.84
2018-03-20T08:08:03.884Z,101302.23
2018-03-20T08:10:35.188Z,101301.70
2018-03-20T08:13:06.216Z,101282.77
2018-03-20T08:15:39.532Z,101240.46
2018-03-20T08:18:10.930Z,101307.25
2018-03-20T08:20:43.437Z,101305.70
2018-03-20T08:23:17.272Z,101327.34
2018-03-20T08:25:48.963Z,101334.22
2018-03-20T08:28:21.703Z,101335.69
2018-03-20T08:30:54.472Z,101309.86
2018-03-20T08:33:31.381Z,101347.72
2018-03-20T08:36:02.561Z,101351.91
2018-03-20T08:38:35.133Z,101356.05
2018-03-20T08:41:07.682Z,101354.09
2018-03-20T08:43:39.565Z,101344.47
2018-03-20T08:46:11.150Z,101352.66
2018-03-20T08:48:42.384Z,101362.83
2018-03-20T08:54:14.714Z,101361.09
2018-03-20T08:56:46.443Z,101367.72
2018-03-20T08:59:18.174Z,101371.29
2018-03-20T09:01:50.017Z,101375.48
2018-03-20T09:04:22.452Z,101377.09
2018-03-20T09:06:54.713Z,101383.62
2018-03-20T09:09:26.080Z,101382.77
2018-03-20T09:12:00.197Z,101383.83
2018-03-20T09:14:32.056Z,101390.63
2018-03-20T09:17:05.752Z,101386.58
2018-03-20T09:19:39.980Z,101386.80
2018-03-20T09:22:10.967Z,101364.61
2018-03-20T09:24:42.977Z,101394.62
2018-03-20T09:27:14.305Z,101395.75
2018-03-20T09:29:45.439Z,101400.00
2018-03-20T09:32:17.033Z,101400.74
2018-03-20T09:34:56.158Z,101402.89
2018-03-20T09:37:27.459Z,101397.77
2018-03-20T09:40:04.409Z,101410.23
2018-03-20T09:42:35.519Z,101403.86
2018-03-20T09:45:08.932Z,101414.41
2018-03-20T09:47:40.499Z,101411.06
2018-03-20T09:50:14.361Z,101419.45
2018-03-20T09:52:47.113Z,101426.80
2018-03-20T09:55:20.757Z,101419.50
2018-03-20T09:57:52.106Z,101434.63
2018-03-20T10:00:24.748Z,101442.23
2018-03-20T10:02:56.032Z,101445.97
2018-03-20T10:05:28.326Z,101449.14
2018-03-20T10:08:02.400Z,101440.17
2018-03-20T10:10:35.136Z,101438.28
2018-03-20T10:13:14.902Z,101452.52
2018-03-20T10:15:47.858Z,101458.57
2018-03-20T10:18:20.676Z,101452.75
2018-03-20T10:20:53.765Z,101460.22
2018-03-20T10:26:01.819Z,101463.86
2018-03-20T10:28:36.653Z,101479.70
2018-03-20T10:31:12.256Z,101476.20
2018-03-20T10:33:46.193Z,101473.78
2018-03-20T10:36:18.569Z,101483.45
2018-03-20T10:38:50.280Z,101488.66
2018-03-20T10:41:24.087Z,101479.27
2018-03-20T10:43:56.736Z,101477.68
2018-03-20T10:46:29.288Z,101485.27
2018-03-20T10:49:03.289Z,101485.33
2018-03-20T10:51:36.572Z,101491.48
2018-03-20T10:54:08.755Z,101494.18
2018-03-20T10:56:42.100Z,101495.06
2018-03-20T10:59:13.131Z,101499.64
2018-03-20T11:01:47.285Z,101493.46
2018-03-20T11:04:19.067Z,101486.80
2018-03-20T11:06:50.806Z,101507.80
2018-03-20T11:09:23.508Z,101499.91
2018-03-20T11:11:55.797Z,101512.61
2018-03-20T11:14:30.899Z,101517.09
2018-03-20T11:17:05.473Z,101520.93
2018-03-20T11:19:47.892Z,101520.92
2018-03-20T11:22:21.148Z,101525.23
2018-03-20T11:24:52.933Z,101517.81
2018-03-20T11:27:49.013Z,101519.77
2018-03-20T11:30:26.025Z,101521.37
2018-03-20T11:33:02.687Z,101528.53
2018-03-20T11:35:53.526Z,101516.62
2018-03-20T11:38:30.665Z,101515.75
2018-03-20T11:41:03.835Z,101519.09
2018-03-20T11:43:35.733Z,101514.33
2018-03-20T11:46:08.150Z,101515.02
2018-03-20T11:48:58.640Z,101518.37
2018-03-20T11:51:30.979Z,101525.14
2018-03-20T11:54:02.419Z,101525.54
2018-03-20T11:59:03.452Z,101533.23
2018-03-20T12:01:36.371Z,101544.75
2018-03-20T12:04:08.646Z,101546.05
2018-03-20T12:06:46.020Z,101534.92
2018-03-20T12:09:26.342Z,101521.52
2018-03-20T12:11:57.805Z,101534.19
2018-03-20T12:14:32.617Z,101524.56
2018-03-20T12:17:03.863Z,101530.83
2018-03-20T12:19:37.717Z,101530.17
2018-03-20T12:22:10.987Z,101540.62
2018-03-20T12:24:43.040Z,101548.66
2018-03-20T12:27:16.336Z,101545.00
2018-03-20T12:29:49.374Z,101554.94
2018-03-20T12:32:22.579Z,101548.58
2018-03-20T12:34:54.948Z,101528.02
2018-03-20T12:37:30.833Z,101539.48
2018-03-20T12:40:03.091Z,101559.37
2018-03-20T12:42:35.446Z,101567.56
2018-03-20T12:45:13.566Z,101556.50
2018-03-20T12:47:52.619Z,101534.56
2018-03-20T12:50:24.805Z,101559.30
2018-03-20T12:52:56.818Z,101576.47
2018-03-20T12:55:31.228Z,101567.12
2018-03-20T12:58:03.217Z,101554.39
2018-03-20T13:00:34.709Z,101557.12
2018-03-20T13:03:06.481Z,101561.34
2018-03-20T13:05:38.741Z,101564.61
2018-03-20T13:08:13.200Z,101575.27
2018-03-20T13:11:00.115Z,101563.64
2018-03-20T13:13:31.121Z,101582.48
2018-03-20T13:16:03.310Z,101580.02
2018-03-20T13:18:35.612Z,101581.73
2018-03-20T13:21:09.497Z,101569.59
2018-03-20T13:23:41.742Z,101576.81
2018-03-20T13:26:14.850Z,101584.17
2018-03-20T13:28:49.678Z,101588.37
2018-03-20T13:31:22.815Z,101590.42
2018-03-20T13:34:03.440Z,101581.09
2018-03-20T13:36:36.864Z,101593.35
2018-03-20T13:39:09.423Z,101588.02
2018-03-20T13:41:44.032Z,101589.64
2018-03-20T13:44:17.091Z,101592.36
2018-03-20T13:46:50.818Z,101617.59
2018-03-20T13:49:24.762Z,101608.00
2018-03-20T13:52:03.503Z,101609.16
2018-03-20T13:54:40.881Z,101609.08
2018-03-20T13:57:17.192Z,101608.88
2018-03-20T13:59:49.777Z,101632.05
2018-03-20T14:02:25.645Z,101613.13
2018-03-20T14:04:57.935Z,101617.09
2018-03-20T14:07:41.240Z,101619.74
2018-03-20T14:10:12.560Z,101624.80
2018-03-20T14:12:45.771Z,101630.55
2018-03-20T14:15:19.353Z,101606.59
2018-03-20T14:17:52.934Z,101631.69
2018-03-20T14:20:26.485Z,101625.65
2018-03-20T14:23:05.863Z,101631.70
2018-03-20T14:25:41.285Z,101632.03
2018-03-20T14:28:13.825Z,101633.32
2018-03-20T14:30:55.113Z,101640.16
2018-03-20T14:33:30.626Z,101628.90
2018-03-20T14:36:04.310Z,101647.19
2018-03-20T14:38:36.570Z,101640.42
2018-03-20T14:41:09.834Z,101644.98
2018-03-20T14:43:51.101Z,101657.63
2018-03-20T14:46:23.992Z,101637.23
2018-03-20T14:48:56.571Z,101658.08
2018-03-20T14:51:29.454Z,101663.31
2018-03-20T14:54:01.374Z,101664.02
2018-03-20T14:56:33.292Z,101669.70
2018-03-20T14:59:05.499Z,101666.42
2018-03-20T15:01:38.316Z,101658.59
2018-03-20T15:04:11.363Z,101676.08
2018-03-20T15:06:43.253Z,101674.13
2018-03-20T15:09:15.385Z,101675.40
2018-03-20T15:11:48.322Z,101676.71
2018-03-20T15:14:22.946Z,101666.34
2018-03-20T15:16:55.342Z,101677.59
2018-03-20T15:19:32.277Z,101685.77
2018-03-20T15:22:06.726Z,101687.95
2018-03-20T15:24:41.984Z,101693.67
2018-03-20T15:27:15.123Z,101702.99
2018-03-20T15:29:46.760Z,101705.66
2018-03-20T15:32:18.068Z,101703.02
2018-03-20T15:34:49.877Z,101716.98
2018-03-20T15:37:22.553Z,101707.98
2018-03-20T15:39:57.737Z,101711.91
2018-03-20T15:42:30.702Z,101714.56
2018-03-20T15:45:13.255Z,101695.59
2018-03-20T15:47:44.687Z,101725.23
2018-03-20T15:50:17.316Z,101726.57
2018-03-20T15:52:49.222Z,101738.02
2018-03-20T15:55:21.148Z,101731.66
2018-03-20T15:57:54.329Z,101750.10
2018-03-20T16:00:31.735Z,101744.69
2018-03-20T16:03:04.675Z,101754.25
2018-03-20T16:05:37.341Z,101755.58
2018-03-20T16:08:11.162Z,101751.73
2018-03-20T16:10:43.396Z,101763.58
2018-03-20T16:13:17.135Z,101731.86
2018-03-20T16:15:51.588Z,101770.80
2018-03-20T16:18:24.517Z,101759.45
2018-03-20T16:20:55.939Z,101769.58
2018-03-20T16:23:35.116Z,101776.23
2018-03-20T16:26:09.736Z,101736.95
2018-03-20T16:28:42.012Z,101790.85
2018-03-20T16:31:16.195Z,101781.91
2018-03-20T16:33:47.939Z,101800.03
2018-03-20T16:36:23.618Z,101807.55
2018-03-20T16:38:59.196Z,101810.38
2018-03-20T16:41:36.277Z,101809.25
2018-03-20T16:44:10.409Z,101818.44
2018-03-20T16:46:44.558Z,101824.14
2018-03-20T16:49:19.583Z,101828.18
2018-03-20T16:51:54.004Z,101836.39
2018-03-20T16:54:32.431Z,101840.43
2018-03-20T16:57:06.434Z,101845.61
2018-03-20T16:59:41.063Z,101846.75
2018-03-20T17:02:20.807Z,101851.28
2018-03-20T17:04:55.910Z,101862.75
2018-03-20T17:07:29.620Z,101864.67
2018-03-20T17:10:09.932Z,101858.66
2018-03-20T17:12:44.250Z,101868.62
2018-03-20T17:15:24.609Z,100572.58
2018-03-20T17:17:57.289Z,101868.55
2018-03-20T17:20:32.594Z,101872.44
2018-03-20T17:23:12.378Z,101877.55
2018-03-20T17:26:01.772Z,101881.66
2018-03-20T17:28:39.515Z,101879.09
2018-03-20T17:31:11.942Z,101881.84
2018-03-20T17:33:46.700Z,101890.80
2018-03-20T17:36:22.839Z,101895.91
2018-03-20T17:39:06.926Z,101902.80
2018-03-20T17:41:42.571Z,101898.14
2018-03-20T17:44:20.005Z,101897.80
2018-03-20T17:49:44.398Z,101911.05
2018-03-20T17:52:24.282Z,101920.72
2018-03-20T17:55:27.870Z,101922.03
2018-03-20T18:02:12.573Z,101939.75
2018-03-20T18:04:51.095Z,101957.68
2018-03-20T18:07:26.204Z,101953.73
2018-03-20T18:09:58.912Z,101958.01
2018-03-20T18:12:33.256Z,101959.80
2018-03-20T18:15:08.926Z,101966.48
2018-03-20T18:17:41.347Z,101961.19
2018-03-20T18:20:18.852Z,101979.94
2018-03-20T18:22:53.694Z,101980.67
2018-03-20T18:25:29.023Z,101991.45
2018-03-20T18:28:05.145Z,101995.05
2018-03-20T18:30:40.001Z,102004.20
2018-03-20T18:33:17.012Z,102005.76
2018-03-20T18:35:53.495Z,102005.53
2018-03-20T18:38:28.855Z,102012.02
2018-03-20T18:41:07.260Z,102016.27
2018-03-20T18:43:47.817Z,102019.39
2018-03-20T18:46:30.835Z,102025.67
2018-03-20T18:49:10.336Z,102027.38
2018-03-20T18:54:40.823Z,102036.75
2018-03-20T18:57:17.107Z,102039.83
2018-03-20T18:59:53.958Z,102039.85
2018-03-20T19:02:33.596Z,102040.20
2018-03-20T19:05:20.057Z,102046.17
2018-03-20T19:07:57.262Z,102063.08
2018-03-20T19:10:32.943Z,102037.86
2018-03-20T19:13:06.648Z,102060.69
2018-03-20T19:15:41.093Z,102066.99
2018-03-20T19:18:20.105Z,102067.81
2018-03-20T19:21:01.215Z,102076.68
2018-03-20T19:23:35.261Z,102056.67
2018-03-20T19:26:12.658Z,102085.78
2018-03-20T19:31:32.841Z,102102.08
2018-03-20T19:34:09.285Z,102104.09
2018-03-20T19:36:46.211Z,102117.55
2018-03-20T19:39:22.343Z,102113.42
2018-03-20T19:41:55.835Z,102116.07
2018-03-20T19:44:32.683Z,102127.09
2018-03-20T19:47:11.011Z,102119.56
2018-03-20T19:49:46.879Z,102126.78
2018-03-20T19:52:22.494Z,102137.19
2018-03-20T19:55:00.352Z,102143.30
2018-03-20T19:57:35.609Z,102150.92
2018-03-20T20:00:18.167Z,102150.64
2018-03-20T20:02:54.950Z,102151.17
2018-03-20T20:05:35.738Z,102141.08
2018-03-20T20:08:10.539Z,102163.98
2018-03-20T20:10:45.298Z,102165.80
2018-03-20T20:13:20.883Z,102166.69
2018-03-20T20:15:54.642Z,102169.81
2018-03-20T20:18:27.818Z,102165.34
2018-03-20T20:21:01.921Z,102174.47
2018-03-20T20:23:36.910Z,102170.11
2018-03-20T20:26:11.661Z,102173.22
2018-03-20T20:28:46.910Z,102175.27
2018-03-20T20:31:25.027Z,102157.56
2018-03-20T20:34:00.491Z,102141.68
2018-03-20T20:36:35.477Z,102190.77
2018-03-20T20:39:10.384Z,102194.74
2018-03-20T20:41:44.749Z,102201.30
2018-03-20T20:44:18.481Z,102198.98
2018-03-20T20:46:56.220Z,102207.23
2018-03-20T20:49:32.034Z,102205.74
2018-03-20T20:52:08.770Z,102210.57
2018-03-20T20:54:44.590Z,102209.09
2018-03-20T20:57:18.010Z,102216.58
2018-03-20T20:59:52.759Z,102218.62
2018-03-20T21:02:28.362Z,102222.03
2018-03-20T21:05:00.481Z,102228.73
2018-03-20T21:07:32.350Z,102234.95
2018-03-20T21:10:05.636Z,102232.78
2018-03-20T21:12:37.972Z,102233.33
2018-03-20T21:26:07.422Z,102247.21
2018-03-20T21:28:41.260Z,102241.33
2018-03-20T21:31:15.984Z,102252.65
2018-03-20T21:33:47.963Z,102251.81
2018-03-20T21:36:22.535Z,102252.14
2018-03-20T21:38:54.919Z,102255.82
2018-03-20T21:41:29.870Z,102254.07
2018-03-20T21:44:15.674Z,102254.62
2018-03-20T21:46:48.618Z,102238.26
2018-03-20T21:49:20.450Z,102258.72
2018-03-20T21:51:51.856Z,102257.27
2018-03-20T21:54:26.660Z,102223.19
2018-03-20T21:56:59.825Z,102260.27
2018-03-20T21:59:30.863Z,102262.02
2018-03-20T22:02:03.571Z,102269.27
2018-03-20T22:04:34.677Z,102271.37
2018-03-20T22:07:09.127Z,102278.16
2018-03-20T22:09:40.131Z,102280.13
2018-03-20T22:12:11.465Z,102282.77
2018-03-20T22:14:42.712Z,102285.84
2018-03-20T22:17:14.564Z,102292.41
2018-03-20T22:19:46.005Z,102295.67
2018-03-20T22:22:17.496Z,102290.20
2018-03-20T22:24:48.383Z,102293.97
2018-03-20T22:27:20.667Z,102298.74
2018-03-20T22:29:52.716Z,102295.78
2018-03-20T22:35:02.980Z,102300.82
2018-03-20T22:37:34.398Z,102303.83
2018-03-20T22:40:06.679Z,102304.40
2018-03-20T22:42:38.572Z,102302.67
2018-03-20T22:45:10.259Z,102310.31
2018-03-20T22:47:45.107Z,102305.93
2018-03-20T22:50:17.494Z,102313.70
2018-03-20T22:52:49.278Z,102313.05
2018-03-20T22:55:22.969Z,102321.52
2018-03-20T22:58:01.669Z,102316.74
2018-03-20T23:00:34.783Z,102313.56
2018-03-20T23:03:07.362Z,102323.12
2018-03-20T23:05:39.769Z,102325.45
2018-03-20T23:08:11.540Z,102322.97
2018-03-20T23:10:43.114Z,102322.56
2018-03-20T23:13:14.731Z,102329.16
2018-03-20T23:15:47.521Z,102330.77
2018-03-20T23:18:24.477Z,102334.14
2018-03-20T23:20:56.570Z,102327.20
2018-03-20T23:23:40.449Z,102330.96
2018-03-20T23:26:12.292Z,102333.27
2018-03-20T23:28:50.489Z,102321.85
2018-03-20T23:31:22.672Z,102329.06
2018-03-20T23:33:54.004Z,102329.17
2018-03-20T23:36:26.348Z,102331.87
2018-03-20T23:38:57.472Z,102330.88
2018-03-20T23:41:31.571Z,102336.86
2018-03-20T23:44:02.945Z,102343.42
2018-03-20T23:46:34.543Z,102332.92
2018-03-20T23:49:06.275Z,102336.79
2018-03-20T23:51:38.642Z,102343.01
2018-03-20T23:54:10.834Z,102340.73
2018-03-20T23:56:43.211Z,102344.50
2018-03-20T23:59:14.701Z,102350.67
